Trabzon — 9HA2783 — position and weather

sailwx.info

Track history (hours):
 
Tides and Currents Weather Stations Pressure Air Temp Water Temp Dewpoint Dewpoint Depression Visibility Wind Speed Wind Dir Waves Ship Positions

Trabzon

Last reported at 2016-Apr-27 09:27 UTC. Time now 2016-May-06 14:52 UTC.
Position N 36°28' E 014°51'.
Warning: this ship's position is 9 days out of date.

Length 229 m; draft 14.3 m.

Type: Cargo ship. MMSI: 215679000.

Date/timePositionNaut miles runAvg speedWind from/ knotsBaromVisibWave heightAir tempDewpointWater temp
2016-Apr-27 09:27N 36°28' E 014°51'1111.9
2016-Apr-27 08:32N 36°28' E 014°38'1111.4
2016-Apr-27 07:33N 36°28' E 014°24'1111.2
2016-Apr-27 06:33N 36°29' E 014°10'1111.3
2016-Apr-27 05:33N 36°32' E 013°56'1111.2
2016-Apr-27 04:32N 36°34' E 013°42'1111.1
2016-Apr-27 03:33N 36°36' E 013°29'1111.4
2016-Apr-27 02:33N 36°39' E 013°15'1111.5
2016-Apr-27 01:33N 36°41' E 013°01'1211.4
2016-Apr-27 00:29N 36°44' E 012°47'  
2016-Apr-23 16:33N 36°00' W 005°15'26110.0
2016-Apr-22 14:33N 38°12' W 009°58'1211.8
2016-Apr-22 13:33N 38°24' W 010°02'1211.9
2016-Apr-22 12:33N 38°35' W 010°05'1211.7
2016-Apr-22 11:33N 38°47' W 010°07'1211.7
2016-Apr-22 10:33N 38°59' W 010°07'1312.8
2016-Apr-22 09:31N 39°12' W 010°07'1212.1
2016-Apr-22 08:33N 39°23' W 010°07'  
2016-Apr-19 17:33N 49°32' W 004°10'1210.3
2016-Apr-19 16:23N 49°38' W 003°54'910.2
2016-Apr-19 15:32N 49°42' W 003°42'1010.6
2016-Apr-19 14:33N 49°47' W 003°29'1211.6
2016-Apr-19 13:33N 49°53' W 003°13'1312.7
2016-Apr-19 12:33N 49°59' W 002°55'1913.5
2016-Apr-19 11:10N 50°04' W 002°27'1013.1
2016-Apr-19 10:22N 50°07' W 002°12'57 9.8
2016-Apr-19 04:33N 50°22' W 000°46'1210.9
2016-Apr-19 03:30N 50°25' W 000°28'1111.8
2016-Apr-19 02:33N 50°28' W 000°11'1212.1
2016-Apr-19 01:33N 50°32' E 000°07'1412.1
2016-Apr-19 00:26N 50°35' E 000°28'3110.5
2016-Apr-18 21:28N 50°54' E 001°07'9 9.6
2016-Apr-18 20:33N 50°59' E 001°18'1110.6
2016-Apr-18 19:33N 51°06' E 001°31'1212.3
2016-Apr-18 18:33N 51°14' E 001°46'1313.0
2016-Apr-18 17:33N 51°25' E 001°56'1212.4
2016-Apr-18 16:33N 51°35' E 002°08'  
Track history (hours):
 
Tides and Currents Weather Stations Pressure Air Temp Water Temp Dewpoint Dewpoint Depression Visibility Wind Speed Wind Dir Waves Ship Positions

Trabzon

Last reported at 2016-Apr-27 09:27 UTC. Time now 2016-May-06 14:52 UTC.
Position N 36°28' E 014°51'.
Warning: this ship's position is 9 days out of date.

Length 229 m; draft 14.3 m.

Type: Cargo ship. MMSI: 215679000.

Date/timePositionNaut miles runAvg speedWind from/ knotsBaromVisibWave heightAir tempDewpointWater temp
2016-Apr-27 09:27N 36°28' E 014°51'1111.9
2016-Apr-27 08:32N 36°28' E 014°38'1111.4
2016-Apr-27 07:33N 36°28' E 014°24'1111.2
2016-Apr-27 06:33N 36°29' E 014°10'1111.3
2016-Apr-27 05:33N 36°32' E 013°56'1111.2
2016-Apr-27 04:32N 36°34' E 013°42'1111.1
2016-Apr-27 03:33N 36°36' E 013°29'1111.4
2016-Apr-27 02:33N 36°39' E 013°15'1111.5
2016-Apr-27 01:33N 36°41' E 013°01'1211.4
2016-Apr-27 00:29N 36°44' E 012°47'  
2016-Apr-23 16:33N 36°00' W 005°15'26110.0
2016-Apr-22 14:33N 38°12' W 009°58'1211.8
2016-Apr-22 13:33N 38°24' W 010°02'1211.9
2016-Apr-22 12:33N 38°35' W 010°05'1211.7
2016-Apr-22 11:33N 38°47' W 010°07'1211.7
2016-Apr-22 10:33N 38°59' W 010°07'1312.8
2016-Apr-22 09:31N 39°12' W 010°07'1212.1
2016-Apr-22 08:33N 39°23' W 010°07'  
2016-Apr-19 17:33N 49°32' W 004°10'1210.3
2016-Apr-19 16:23N 49°38' W 003°54'910.2
2016-Apr-19 15:32N 49°42' W 003°42'1010.6
2016-Apr-19 14:33N 49°47' W 003°29'1211.6
2016-Apr-19 13:33N 49°53' W 003°13'1312.7
2016-Apr-19 12:33N 49°59' W 002°55'1913.5
2016-Apr-19 11:10N 50°04' W 002°27'1013.1
2016-Apr-19 10:22N 50°07' W 002°12'57 9.8
2016-Apr-19 04:33N 50°22' W 000°46'1210.9
2016-Apr-19 03:30N 50°25' W 000°28'1111.8
2016-Apr-19 02:33N 50°28' W 000°11'1212.1
2016-Apr-19 01:33N 50°32' E 000°07'1412.1
2016-Apr-19 00:26N 50°35' E 000°28'3110.5
2016-Apr-18 21:28N 50°54' E 001°07'9 9.6
2016-Apr-18 20:33N 50°59' E 001°18'1110.6
2016-Apr-18 19:33N 51°06' E 001°31'1212.3
2016-Apr-18 18:33N 51°14' E 001°46'1313.0
2016-Apr-18 17:33N 51°25' E 001°56'1212.4
2016-Apr-18 16:33N 51°35' E 002°08'  

Dump ship's entire track history